sensor_id;sensor_type;location;lat;lon;timestamp;pressure;altitude;pressure_sealevel;temperature;humidity
56518;BME280;42419;48.760;2.322;2023-04-21T00:02:08;100456.28;;;25.85;25.67
56518;BME280;42419;48.760;2.322;2023-04-21T00:04:33;100463.63;;;25.83;25.30
56518;BME280;42419;48.760;2.322;2023-04-21T00:06:59;100452.06;;;25.81;25.22
56518;BME280;42419;48.760;2.322;2023-04-21T00:09:27;100454.66;;;25.82;26.04
56518;BME280;42419;48.760;2.322;2023-04-21T00:11:52;100423.22;;;25.69;25.63
56518;BME280;42419;48.760;2.322;2023-04-21T00:14:18;100432.13;;;25.83;25.60
56518;BME280;42419;48.760;2.322;2023-04-21T00:16:43;100415.72;;;25.74;25.71
56518;BME280;42419;48.760;2.322;2023-04-21T00:19:09;100435.47;;;25.87;25.49
56518;BME280;42419;48.760;2.322;2023-04-21T00:21:34;100427.06;;;25.79;25.46
56518;BME280;42419;48.760;2.322;2023-04-21T00:24:00;100446.03;;;25.90;25.69
56518;BME280;42419;48.760;2.322;2023-04-21T00:26:25;100413.75;;;25.76;25.60
56518;BME280;42419;48.760;2.322;2023-04-21T00:28:50;100435.03;;;25.93;25.55
56518;BME280;42419;48.760;2.322;2023-04-21T00:31:16;100432.00;;;25.98;25.48
56518;BME280;42419;48.760;2.322;2023-04-21T00:33:41;100426.75;;;25.96;25.12
56518;BME280;42419;48.760;2.322;2023-04-21T00:36:07;100426.53;;;25.99;25.22
56518;BME280;42419;48.760;2.322;2023-04-21T00:38:32;100403.75;;;25.90;25.24
56518;BME280;42419;48.760;2.322;2023-04-21T00:40:57;100400.28;;;25.88;25.12
56518;BME280;42419;48.760;2.322;2023-04-21T00:43:23;100416.50;;;26.01;25.39
56518;BME280;42419;48.760;2.322;2023-04-21T00:45:50;100398.34;;;25.90;25.19
56518;BME280;42419;48.760;2.322;2023-04-21T00:48:15;100393.06;;;25.89;25.08
56518;BME280;42419;48.760;2.322;2023-04-21T00:50:42;100390.16;;;25.92;25.15
56518;BME280;42419;48.760;2.322;2023-04-21T00:53:08;100417.25;;;26.03;25.17
56518;BME280;42419;48.760;2.322;2023-04-21T00:55:34;100412.72;;;26.04;25.42
56518;BME280;42419;48.760;2.322;2023-04-21T00:57:59;100397.41;;;26.04;25.10
56518;BME280;42419;48.760;2.322;2023-04-21T01:00:26;100389.84;;;25.97;25.28
56518;BME280;42419;48.760;2.322;2023-04-21T01:02:52;100396.31;;;26.07;25.19
56518;BME280;42419;48.760;2.322;2023-04-21T01:05:17;100392.88;;;26.05;25.22
56518;BME280;42419;48.760;2.322;2023-04-21T01:07:43;100388.34;;;26.05;24.75
56518;BME280;42419;48.760;2.322;2023-04-21T01:10:09;100387.47;;;26.05;25.26
56518;BME280;42419;48.760;2.322;2023-04-21T01:12:42;100368.25;;;25.97;25.06
56518;BME280;42419;48.760;2.322;2023-04-21T01:15:09;100392.97;;;26.03;24.77
56518;BME280;42419;48.760;2.322;2023-04-21T01:17:35;100369.44;;;25.92;25.05
56518;BME280;42419;48.760;2.322;2023-04-21T01:20:07;100388.34;;;26.05;24.41
56518;BME280;42419;48.760;2.322;2023-04-21T01:22:38;100389.94;;;26.08;24.97
56518;BME280;42419;48.760;2.322;2023-04-21T01:25:04;100380.25;;;26.05;24.77
56518;BME280;42419;48.760;2.322;2023-04-21T01:27:30;100374.84;;;26.05;24.88
56518;BME280;42419;48.760;2.322;2023-04-21T01:29:56;100372.16;;;26.05;24.70
56518;BME280;42419;48.760;2.322;2023-04-21T01:32:24;100380.09;;;26.07;24.62
56518;BME280;42419;48.760;2.322;2023-04-21T01:34:51;100379.38;;;26.05;24.95
56518;BME280;42419;48.760;2.322;2023-04-21T01:37:21;100382.72;;;26.08;25.01
56518;BME280;42419;48.760;2.322;2023-04-21T01:39:50;100377.31;;;26.08;24.95
56518;BME280;42419;48.760;2.322;2023-04-21T01:42:17;100357.25;;;26.00;25.05
56518;BME280;42419;48.760;2.322;2023-04-21T01:44:44;100362.41;;;26.03;24.64
56518;BME280;42419;48.760;2.322;2023-04-21T01:47:11;100373.66;;;26.09;24.95
56518;BME280;42419;48.760;2.322;2023-04-21T01:49:36;100373.66;;;26.09;24.55
56518;BME280;42419;48.760;2.322;2023-04-21T01:52:02;100372.69;;;26.10;24.56
56518;BME280;42419;48.760;2.322;2023-04-21T01:54:27;100365.56;;;26.09;24.57
56518;BME280;42419;48.760;2.322;2023-04-21T01:56:52;100361.03;;;26.10;24.87
56518;BME280;42419;48.760;2.322;2023-04-21T01:59:18;100368.25;;;26.09;24.39
56518;BME280;42419;48.760;2.322;2023-04-21T02:01:46;100362.63;;;26.12;24.80
56518;BME280;42419;48.760;2.322;2023-04-21T02:04:11;100342.78;;;26.01;24.70
56518;BME280;42419;48.760;2.322;2023-04-21T02:06:36;100360.91;;;26.11;24.66
56518;BME280;42419;48.760;2.322;2023-04-21T02:09:02;100345.91;;;26.07;24.39
56518;BME280;42419;48.760;2.322;2023-04-21T02:11:28;100350.44;;;26.07;24.42
56518;BME280;42419;48.760;2.322;2023-04-21T02:13:54;100353.03;;;26.08;24.73
56518;BME280;42419;48.760;2.322;2023-04-21T02:16:19;100357.47;;;26.09;24.70
56518;BME280;42419;48.760;2.322;2023-04-21T02:18:47;100357.47;;;26.09;24.33
56518;BME280;42419;48.760;2.322;2023-04-21T02:21:13;100339.63;;;26.07;24.42
56518;BME280;42419;48.760;2.322;2023-04-21T02:23:39;100336.75;;;26.10;24.62
56518;BME280;42419;48.760;2.322;2023-04-21T02:26:04;100335.00;;;26.09;24.81
56518;BME280;42419;48.760;2.322;2023-04-21T02:28:30;100338.44;;;26.11;24.67
56518;BME280;42419;48.760;2.322;2023-04-21T02:30:56;100332.22;;;26.10;24.28
56518;BME280;42419;48.760;2.322;2023-04-21T02:33:21;100315.81;;;26.01;24.58
56518;BME280;42419;48.760;2.322;2023-04-21T02:35:46;100310.28;;;26.02;24.65
56518;BME280;42419;48.760;2.322;2023-04-21T02:38:12;100332.22;;;26.10;24.51
56518;BME280;42419;48.760;2.322;2023-04-21T02:40:37;100333.03;;;26.11;24.85
56518;BME280;42419;48.760;2.322;2023-04-21T02:43:02;100335.66;;;26.12;24.40
56518;BME280;42419;48.760;2.322;2023-04-21T02:45:28;100333.03;;;26.11;24.72
56518;BME280;42419;48.760;2.322;2023-04-21T02:47:53;100329.59;;;26.09;24.75
56518;BME280;42419;48.760;2.322;2023-04-21T02:50:18;100325.63;;;26.14;24.30
56518;BME280;42419;48.760;2.322;2023-04-21T02:52:44;100332.94;;;26.25;24.19
56518;BME280;42419;48.760;2.322;2023-04-21T02:55:09;100308.75;;;26.23;24.30
56518;BME280;42419;48.760;2.322;2023-04-21T02:57:35;100311.22;;;26.26;24.41
56518;BME280;42419;48.760;2.322;2023-04-21T03:00:00;100303.88;;;26.28;23.98
56518;BME280;42419;48.760;2.322;2023-04-21T03:02:25;100315.22;;;26.33;24.08
56518;BME280;42419;48.760;2.322;2023-04-21T03:04:50;100315.75;;;26.39;24.38
56518;BME280;42419;48.760;2.322;2023-04-21T03:07:17;100328.06;;;26.43;23.71
56518;BME280;42419;48.760;2.322;2023-04-21T03:09:42;100303.69;;;26.31;24.06
56518;BME280;42419;48.760;2.322;2023-04-21T03:12:07;100318.47;;;26.39;23.89
56518;BME280;42419;48.760;2.322;2023-04-21T03:14:33;100325.69;;;26.38;24.13
56518;BME280;42419;48.760;2.322;2023-04-21T03:16:58;100318.38;;;26.40;24.26
56518;BME280;42419;48.760;2.322;2023-04-21T03:19:23;100326.69;;;26.37;24.36
56518;BME280;42419;48.760;2.322;2023-04-21T03:21:49;100318.78;;;26.34;23.89
56518;BME280;42419;48.760;2.322;2023-04-21T03:24:17;100319.56;;;26.36;23.99
56518;BME280;42419;48.760;2.322;2023-04-21T03:26:46;100318.16;;;26.30;24.21
56518;BME280;42419;48.760;2.322;2023-04-21T03:29:11;100320.06;;;26.28;24.79
56518;BME280;42419;48.760;2.322;2023-04-21T03:31:37;100309.50;;;26.25;24.17
56518;BME280;42419;48.760;2.322;2023-04-21T03:34:02;100311.34;;;26.25;24.07
56518;BME280;42419;48.760;2.322;2023-04-21T03:36:27;100312.19;;;26.25;24.22
56518;BME280;42419;48.760;2.322;2023-04-21T03:38:53;100288.81;;;26.13;24.41
56518;BME280;42419;48.760;2.322;2023-04-21T03:41:18;100306.41;;;26.19;24.11
56518;BME280;42419;48.760;2.322;2023-04-21T03:43:46;100287.50;;;26.06;24.32
56518;BME280;42419;48.760;2.322;2023-04-21T03:46:20;100306.41;;;26.19;24.21
56518;BME280;42419;48.760;2.322;2023-04-21T03:48:46;100292.38;;;26.14;24.53
56518;BME280;42419;48.760;2.322;2023-04-21T03:51:12;100283.84;;;26.07;24.34
56518;BME280;42419;48.760;2.322;2023-04-21T03:53:38;100288.03;;;26.11;24.11
56518;BME280;42419;48.760;2.322;2023-04-21T03:56:04;100292.22;;;26.15;24.47
56518;BME280;42419;48.760;2.322;2023-04-21T03:58:29;100278.44;;;26.07;24.47
56518;BME280;42419;48.760;2.322;2023-04-21T04:00:55;100286.84;;;26.15;24.35
56518;BME280;42419;48.760;2.322;2023-04-21T04:03:20;100294.94;;;26.15;24.06
56518;BME280;42419;48.760;2.322;2023-04-21T04:05:45;100296.81;;;26.15;24.34
56518;BME280;42419;48.760;2.322;2023-04-21T04:08:11;100290.41;;;26.16;24.44
56518;BME280;42419;48.760;2.322;2023-04-21T04:10:36;100286.09;;;26.13;24.03
56518;BME280;42419;48.760;2.322;2023-04-21T04:13:01;100278.97;;;26.12;24.24
56518;BME280;42419;48.760;2.322;2023-04-21T04:15:27;100282.78;;;26.10;24.24
56518;BME280;42419;48.760;2.322;2023-04-21T04:17:52;100280.16;;;26.08;24.44
56518;BME280;42419;48.760;2.322;2023-04-21T04:20:18;100266.59;;;25.97;23.94
56518;BME280;42419;48.760;2.322;2023-04-21T04:22:43;100295.25;;;26.11;24.29
56518;BME280;42419;48.760;2.322;2023-04-21T04:25:09;100286.19;;;26.12;24.12
56518;BME280;42419;48.760;2.322;2023-04-21T04:27:34;100282.63;;;26.11;24.14
56518;BME280;42419;48.760;2.322;2023-04-21T04:29:59;100283.50;;;26.12;24.43
56518;BME280;42419;48.760;2.322;2023-04-21T04:32:25;100281.69;;;26.12;24.45
56518;BME280;42419;48.760;2.322;2023-04-21T04:34:53;100279.84;;;26.13;24.44
56518;BME280;42419;48.760;2.322;2023-04-21T04:37:20;100268.63;;;26.06;24.21
56518;BME280;42419;48.760;2.322;2023-04-21T04:39:46;100278.09;;;26.12;24.24
56518;BME280;42419;48.760;2.322;2023-04-21T04:42:11;100285.25;;;26.13;24.46
56518;BME280;42419;48.760;2.322;2023-04-21T04:44:37;100280.72;;;26.13;24.65
56518;BME280;42419;48.760;2.322;2023-04-21T04:47:02;100287.94;;;26.13;23.91
56518;BME280;42419;48.760;2.322;2023-04-21T04:49:28;100259.78;;;26.04;24.22
56518;BME280;42419;48.760;2.322;2023-04-21T04:51:53;100277.91;;;26.15;24.38
56518;BME280;42419;48.760;2.322;2023-04-21T04:54:19;100274.34;;;26.14;24.03
56518;BME280;42419;48.760;2.322;2023-04-21T04:56:46;100273.25;;;26.17;24.32
56518;BME280;42419;48.760;2.322;2023-04-21T04:59:12;100277.03;;;26.14;23.99
56518;BME280;42419;48.760;2.322;2023-04-21T05:01:37;100280.47;;;26.16;23.94
56518;BME280;42419;48.760;2.322;2023-04-21T05:04:04;100277.78;;;26.16;23.90
56518;BME280;42419;48.760;2.322;2023-04-21T05:06:29;100257.19;;;26.03;24.30
56518;BME280;42419;48.760;2.322;2023-04-21T05:08:56;100262.47;;;26.04;24.56
56518;BME280;42419;48.760;2.322;2023-04-21T05:11:21;100186.47;;;25.61;24.04
56518;BME280;42419;48.760;2.322;2023-04-21T05:13:47;100266.59;;;26.10;24.33
56518;BME280;42419;48.760;2.322;2023-04-21T05:16:12;100273.56;;;26.12;24.38
56518;BME280;42419;48.760;2.322;2023-04-21T05:18:37;100267.88;;;26.04;24.23
56518;BME280;42419;48.760;2.322;2023-04-21T05:21:03;100272.84;;;26.10;24.21
56518;BME280;42419;48.760;2.322;2023-04-21T05:23:28;100282.53;;;26.13;24.51
56518;BME280;42419;48.760;2.322;2023-04-21T05:25:54;100276.38;;;26.11;24.09
56518;BME280;42419;48.760;2.322;2023-04-21T05:28:19;100274.69;;;26.10;24.44
56518;BME280;42419;48.760;2.322;2023-04-21T05:30:45;100272.84;;;26.10;24.20
56518;BME280;42419;48.760;2.322;2023-04-21T05:33:10;100258.28;;;26.00;24.46
56518;BME280;42419;48.760;2.322;2023-04-21T05:35:35;100271.53;;;26.03;24.23
56518;BME280;42419;48.760;2.322;2023-04-21T05:38:01;100253.13;;;25.97;24.66
56518;BME280;42419;48.760;2.322;2023-04-21T05:40:26;100264.53;;;26.01;24.42
56518;BME280;42419;48.760;2.322;2023-04-21T05:42:51;100271.84;;;26.11;24.56
56518;BME280;42419;48.760;2.322;2023-04-21T05:45:17;100274.22;;;26.16;24.44
56518;BME280;42419;48.760;2.322;2023-04-21T05:47:42;100269.16;;;26.11;24.30
56518;BME280;42419;48.760;2.322;2023-04-21T05:50:07;100271.13;;;26.09;25.26
56518;BME280;42419;48.760;2.322;2023-04-21T05:52:33;100243.00;;;25.88;25.63
56518;BME280;42419;48.760;2.322;2023-04-21T05:55:01;100277.16;;;26.00;26.18
56518;BME280;42419;48.760;2.322;2023-04-21T05:57:27;100280.59;;;26.02;26.30
56518;BME280;42419;48.760;2.322;2023-04-21T05:59:52;100279.09;;;25.98;26.27
56518;BME280;42419;48.760;2.322;2023-04-21T06:02:17;100279.00;;;26.00;26.38
56518;BME280;42419;48.760;2.322;2023-04-21T06:04:43;100278.38;;;25.96;27.07
56518;BME280;42419;48.760;2.322;2023-04-21T06:07:09;100281.06;;;25.96;27.16
56518;BME280;42419;48.760;2.322;2023-04-21T06:09:37;100274.69;;;25.97;27.27
56518;BME280;42419;48.760;2.322;2023-04-21T06:12:03;100274.69;;;25.97;27.20
56518;BME280;42419;48.760;2.322;2023-04-21T06:14:28;100276.41;;;25.98;27.41
56518;BME280;42419;48.760;2.322;2023-04-21T06:16:53;100268.94;;;26.02;27.02
56518;BME280;42419;48.760;2.322;2023-04-21T06:19:19;100280.72;;;26.01;26.72
56518;BME280;42419;48.760;2.322;2023-04-21T06:21:44;100253.78;;;25.88;26.82
56518;BME280;42419;48.760;2.322;2023-04-21T06:24:09;100180.41;;;25.45;26.86
56518;BME280;42419;48.760;2.322;2023-04-21T06:26:35;100264.41;;;26.02;26.68
56518;BME280;42419;48.760;2.322;2023-04-21T06:29:00;100271.66;;;26.14;26.81
56518;BME280;42419;48.760;2.322;2023-04-21T06:31:26;100272.72;;;26.12;26.97
56518;BME280;42419;48.760;2.322;2023-04-21T06:33:51;100277.91;;;26.15;26.67
56518;BME280;42419;48.760;2.322;2023-04-21T06:36:16;100273.56;;;26.12;26.74
56518;BME280;42419;48.760;2.322;2023-04-21T06:38:42;100278.25;;;26.10;26.93
56518;BME280;42419;48.760;2.322;2023-04-21T06:41:08;100270.78;;;26.14;26.66
56518;BME280;42419;48.760;2.322;2023-04-21T06:43:33;100275.41;;;26.12;26.12
56518;BME280;42419;48.760;2.322;2023-04-21T06:45:59;100276.72;;;26.19;26.55
56518;BME280;42419;48.760;2.322;2023-04-21T06:48:24;100277.25;;;26.11;26.42
56518;BME280;42419;48.760;2.322;2023-04-21T06:50:50;100269.38;;;26.08;26.81
56518;BME280;42419;48.760;2.322;2023-04-21T06:53:16;100273.03;;;26.07;26.76
56518;BME280;42419;48.760;2.322;2023-04-21T06:55:42;100276.50;;;26.09;26.60
56518;BME280;42419;48.760;2.322;2023-04-21T06:58:07;100281.28;;;26.06;26.99
56518;BME280;42419;48.760;2.322;2023-04-21T07:00:33;100277.47;;;26.08;26.71
56518;BME280;42419;48.760;2.322;2023-04-21T07:02:58;100275.75;;;26.07;26.91
56518;BME280;42419;48.760;2.322;2023-04-21T07:05:23;100269.63;;;26.05;26.75
56518;BME280;42419;48.760;2.322;2023-04-21T07:07:49;100272.84;;;26.10;26.25
56518;BME280;42419;48.760;2.322;2023-04-21T07:10:17;100214.63;;;25.82;26.72
56518;BME280;42419;48.760;2.322;2023-04-21T07:12:46;100267.88;;;26.04;26.76
56518;BME280;42419;48.760;2.322;2023-04-21T07:15:12;100266.59;;;26.10;26.36
56518;BME280;42419;48.760;2.322;2023-04-21T07:17:37;100262.25;;;26.07;26.60
56518;BME280;42419;48.760;2.322;2023-04-21T07:20:03;100270.34;;;26.07;26.44
56518;BME280;42419;48.760;2.322;2023-04-21T07:22:28;100208.34;;;25.69;26.77
56518;BME280;42419;48.760;2.322;2023-04-21T07:24:53;100255.13;;;26.06;26.53
56518;BME280;42419;48.760;2.322;2023-04-21T07:27:19;100253.94;;;26.10;26.38
56518;BME280;42419;48.760;2.322;2023-04-21T07:29:46;100242.63;;;26.05;26.76
56518;BME280;42419;48.760;2.322;2023-04-21T07:32:11;100252.09;;;26.11;26.86
56518;BME280;42419;48.760;2.322;2023-04-21T07:34:37;100192.59;;;25.76;26.51
56518;BME280;42419;48.760;2.322;2023-04-21T07:37:02;100235.31;;;25.95;26.56
56518;BME280;42419;48.760;2.322;2023-04-21T07:39:27;100252.31;;;26.08;26.60
56518;BME280;42419;48.760;2.322;2023-04-21T07:41:53;100233.69;;;25.92;26.32
56518;BME280;42419;48.760;2.322;2023-04-21T07:44:19;100249.72;;;26.06;26.70
56518;BME280;42419;48.760;2.322;2023-04-21T07:46:48;100251.69;;;26.04;26.27
56518;BME280;42419;48.760;2.322;2023-04-21T07:49:13;100245.03;;;25.97;26.81
56518;BME280;42419;48.760;2.322;2023-04-21T07:51:39;100236.25;;;25.93;26.74
56518;BME280;42419;48.760;2.322;2023-04-21T07:54:04;100246.66;;;25.87;26.94
56518;BME280;42419;48.760;2.322;2023-04-21T07:56:29;100230.34;;;25.76;27.16
56518;BME280;42419;48.760;2.322;2023-04-21T07:58:55;100229.06;;;25.69;26.81
56518;BME280;42419;48.760;2.322;2023-04-21T08:01:20;100244.59;;;25.78;26.73
56518;BME280;42419;48.760;2.322;2023-04-21T08:03:47;100228.41;;;25.65;27.32
56518;BME280;42419;48.760;2.322;2023-04-21T08:06:13;100233.81;;;25.78;27.66
56518;BME280;42419;48.760;2.322;2023-04-21T08:08:38;100240.09;;;25.78;27.41
56518;BME280;42419;48.760;2.322;2023-04-21T08:11:03;100236.28;;;25.81;27.17
56518;BME280;42419;48.760;2.322;2023-04-21T08:13:29;100232.41;;;25.85;27.47
56518;BME280;42419;48.760;2.322;2023-04-21T08:15:54;100222.16;;;25.77;27.86
56518;BME280;42419;48.760;2.322;2023-04-21T08:18:19;100229.94;;;25.82;27.66
56518;BME280;42419;48.760;2.322;2023-04-21T08:20:45;100238.88;;;25.82;28.10
56518;BME280;42419;48.760;2.322;2023-04-21T08:23:14;100232.63;;;25.82;28.28
56518;BME280;42419;48.760;2.322;2023-04-21T08:25:39;100233.59;;;25.81;27.97
56518;BME280;42419;48.760;2.322;2023-04-21T08:28:05;100230.91;;;25.81;28.37
56518;BME280;42419;48.760;2.322;2023-04-21T08:30:30;100225.19;;;25.73;28.40
56518;BME280;42419;48.760;2.322;2023-04-21T08:32:56;100227.56;;;25.77;28.39
56518;BME280;42419;48.760;2.322;2023-04-21T08:35:21;100214.38;;;25.60;27.85
56518;BME280;42419;48.760;2.322;2023-04-21T08:37:46;100237.72;;;25.74;28.07
56518;BME280;42419;48.760;2.322;2023-04-21T08:40:12;100235.13;;;25.72;28.09
56518;BME280;42419;48.760;2.322;2023-04-21T08:42:38;100230.88;;;25.68;27.76
56518;BME280;42419;48.760;2.322;2023-04-21T08:45:04;100223.88;;;25.66;27.93
56518;BME280;42419;48.760;2.322;2023-04-21T08:47:31;100231.22;;;25.64;27.61
56518;BME280;42419;48.760;2.322;2023-04-21T08:49:58;100233.91;;;25.64;27.87
56518;BME280;42419;48.760;2.322;2023-04-21T08:52:23;100232.41;;;25.60;27.81
56518;BME280;42419;48.760;2.322;2023-04-21T08:54:49;100230.91;;;25.56;27.81
56518;BME280;42419;48.760;2.322;2023-04-21T08:57:17;100218.78;;;25.48;27.39
56518;BME280;42419;48.760;2.322;2023-04-21T08:59:43;100231.00;;;25.54;27.49
56518;BME280;42419;48.760;2.322;2023-04-21T09:02:13;100229.38;;;25.52;27.71
56518;BME280;42419;48.760;2.322;2023-04-21T09:04:44;100233.13;;;25.49;27.46
56518;BME280;42419;48.760;2.322;2023-04-21T09:07:10;100227.75;;;25.49;27.74
56518;BME280;42419;48.760;2.322;2023-04-21T09:10:02;100230.56;;;25.47;27.39
56518;BME280;42419;48.760;2.322;2023-04-21T09:12:28;100230.56;;;25.47;27.43
56518;BME280;42419;48.760;2.322;2023-04-21T09:14:54;100225.19;;;25.47;27.38
56518;BME280;42419;48.760;2.322;2023-04-21T09:17:27;100231.44;;;25.48;26.98
56518;BME280;42419;48.760;2.322;2023-04-21T09:19:56;100234.97;;;25.48;27.34
56518;BME280;42419;48.760;2.322;2023-04-21T09:22:26;100231.00;;;25.41;27.23
56518;BME280;42419;48.760;2.322;2023-04-21T09:24:58;100240.50;;;25.47;27.15
56518;BME280;42419;48.760;2.322;2023-04-21T09:27:27;100218.94;;;25.34;27.36
56518;BME280;42419;48.760;2.322;2023-04-21T09:29:52;100231.75;;;25.43;27.28
56518;BME280;42419;48.760;2.322;2023-04-21T09:32:18;100240.69;;;25.44;27.21
56518;BME280;42419;48.760;2.322;2023-04-21T09:34:44;100229.38;;;25.39;27.40
56518;BME280;42419;48.760;2.322;2023-04-21T09:37:11;100230.03;;;25.42;27.31
56518;BME280;42419;48.760;2.322;2023-04-21T09:39:38;100231.75;;;25.43;27.32
56518;BME280;42419;48.760;2.322;2023-04-21T09:42:03;100227.34;;;25.42;27.09
56518;BME280;42419;48.760;2.322;2023-04-21T09:44:29;100215.25;;;25.35;27.49
56518;BME280;42419;48.760;2.322;2023-04-21T09:46:59;100234.56;;;25.42;27.03
56518;BME280;42419;48.760;2.322;2023-04-21T09:49:29;100201.66;;;25.24;27.16
56518;BME280;42419;48.760;2.322;2023-04-21T09:51:56;100224.09;;;25.37;27.23
56518;BME280;42419;48.760;2.322;2023-04-21T09:54:28;100231.22;;;25.38;27.30
56518;BME280;42419;48.760;2.322;2023-04-21T09:56:54;100227.75;;;25.36;27.47
56518;BME280;42419;48.760;2.322;2023-04-21T09:59:25;100217.19;;;25.33;26.94
56518;BME280;42419;48.760;2.322;2023-04-21T10:01:54;100217.28;;;25.32;27.10
56518;BME280;42419;48.760;2.322;2023-04-21T10:04:20;100221.94;;;25.30;27.07
56518;BME280;42419;48.760;2.322;2023-04-21T10:06:47;100209.53;;;25.27;27.27
56518;BME280;42419;48.760;2.322;2023-04-21T10:09:15;100209.63;;;25.26;27.41
56518;BME280;42419;48.760;2.322;2023-04-21T10:11:42;100217.84;;;25.24;26.98
56518;BME280;42419;48.760;2.322;2023-04-21T10:14:08;100219.75;;;25.22;27.50
56518;BME280;42419;48.760;2.322;2023-04-21T10:16:36;100211.81;;;25.21;27.61
56518;BME280;42419;48.760;2.322;2023-04-21T10:19:22;100212.84;;;25.18;27.25
56518;BME280;42419;48.760;2.322;2023-04-21T10:21:48;100212.00;;;25.18;27.14
56518;BME280;42419;48.760;2.322;2023-04-21T10:24:17;100211.03;;;25.19;27.77
56518;BME280;42419;48.760;2.322;2023-04-21T10:26:42;100196.16;;;25.13;27.31
56518;BME280;42419;48.760;2.322;2023-04-21T10:29:07;100209.19;;;25.19;27.80
56518;BME280;42419;48.760;2.322;2023-04-21T10:31:48;100204.78;;;25.18;27.37
56518;BME280;42419;48.760;2.322;2023-04-21T10:34:16;100201.22;;;25.18;27.51
56518;BME280;42419;48.760;2.322;2023-04-21T10:39:08;100201.34;;;25.16;27.63
56518;BME280;42419;48.760;2.322;2023-04-21T10:41:36;100182.31;;;25.05;27.82
56518;BME280;42419;48.760;2.322;2023-04-21T10:44:12;100193.44;;;25.13;27.65
56518;BME280;42419;48.760;2.322;2023-04-21T10:46:48;100195.28;;;25.13;28.12
56518;BME280;42419;48.760;2.322;2023-04-21T10:49:25;100195.28;;;25.13;28.02
56518;BME280;42419;48.760;2.322;2023-04-21T10:57:18;100175.19;;;25.04;27.82
56518;BME280;42419;48.760;2.322;2023-04-21T10:59:45;100171.53;;;25.05;27.65
56518;BME280;42419;48.760;2.322;2023-04-21T11:02:12;100175.00;;;25.07;27.78
56518;BME280;42419;48.760;2.322;2023-04-21T11:04:39;100167.03;;;25.05;27.89
56518;BME280;42419;48.760;2.322;2023-04-21T11:09:38;100166.75;;;25.10;27.96
56518;BME280;42419;48.760;2.322;2023-04-21T11:12:07;100139.63;;;24.99;27.81
56518;BME280;42419;48.760;2.322;2023-04-21T11:14:35;100163.06;;;25.11;27.49
56518;BME280;42419;48.760;2.322;2023-04-21T11:17:01;100158.66;;;25.10;27.96
56518;BME280;42419;48.760;2.322;2023-04-21T11:19:27;100153.25;;;25.10;27.55
56518;BME280;42419;48.760;2.322;2023-04-21T11:21:53;100137.16;;;24.96;27.81
56518;BME280;42419;48.760;2.322;2023-04-21T11:24:21;100156.88;;;25.09;27.74
56518;BME280;42419;48.760;2.322;2023-04-21T11:26:47;100140.41;;;25.01;27.59
56518;BME280;42419;48.760;2.322;2023-04-21T11:29:12;100124.47;;;24.98;27.93
56518;BME280;42419;48.760;2.322;2023-04-21T11:31:40;100160.94;;;25.16;28.11
56518;BME280;42419;48.760;2.322;2023-04-21T11:34:06;100146.91;;;25.11;27.89
56518;BME280;42419;48.760;2.322;2023-04-21T11:36:36;100138.47;;;25.03;27.99
56518;BME280;42419;48.760;2.322;2023-04-21T11:39:08;100163.63;;;25.16;27.71
56518;BME280;42419;48.760;2.322;2023-04-21T11:41:42;100159.28;;;25.14;27.64
56518;BME280;42419;48.760;2.322;2023-04-21T11:44:09;100164.81;;;25.12;27.86
56518;BME280;42419;48.760;2.322;2023-04-21T11:46:34;100152.47;;;25.08;27.80
56518;BME280;42419;48.760;2.322;2023-04-21T11:49:03;100161.91;;;25.15;27.72
56518;BME280;42419;48.760;2.322;2023-04-21T11:51:40;100161.78;;;25.17;27.49
56518;BME280;42419;48.760;2.322;2023-04-21T11:54:08;100157.56;;;25.13;27.82
56518;BME280;42419;48.760;2.322;2023-04-21T11:56:38;100160.06;;;25.16;28.05
56518;BME280;42419;48.760;2.322;2023-04-21T12:01:33;100149.59;;;25.11;27.88
56518;BME280;42419;48.760;2.322;2023-04-21T12:03:58;100158.25;;;25.16;27.68
56518;BME280;42419;48.760;2.322;2023-04-21T12:06:24;100156.41;;;25.17;27.70
56518;BME280;42419;48.760;2.322;2023-04-21T12:08:59;100151.44;;;25.11;28.05
56518;BME280;42419;48.760;2.322;2023-04-21T12:11:27;100159.41;;;25.12;28.10
56518;BME280;42419;48.760;2.322;2023-04-21T12:13:58;100134.25;;;24.99;27.85
56518;BME280;42419;48.760;2.322;2023-04-21T12:16:25;100155.06;;;25.10;27.95
56518;BME280;42419;48.760;2.322;2023-04-21T12:18:56;100159.59;;;25.09;27.75
56518;BME280;42419;48.760;2.322;2023-04-21T12:21:28;100158.06;;;25.05;27.89
56518;BME280;42419;48.760;2.322;2023-04-21T12:23:57;100143.75;;;24.92;27.88
56518;BME280;42419;48.760;2.322;2023-04-21T12:26:22;100157.44;;;25.01;28.11
56518;BME280;42419;48.760;2.322;2023-04-21T12:28:50;100145.38;;;24.94;28.37
56518;BME280;42419;48.760;2.322;2023-04-21T12:31:17;100159.66;;;24.95;28.07
56518;BME280;42419;48.760;2.322;2023-04-21T12:33:42;100155.38;;;24.92;28.42
56518;BME280;42419;48.760;2.322;2023-04-21T12:36:08;100138.66;;;24.75;28.09
56518;BME280;42419;48.760;2.322;2023-04-21T12:38:33;100156.09;;;24.82;27.95
56518;BME280;42419;48.760;2.322;2023-04-21T12:40:58;100158.38;;;24.75;28.69
56518;BME280;42419;48.760;2.322;2023-04-21T12:43:24;100155.22;;;24.69;28.51
56518;BME280;42419;48.760;2.322;2023-04-21T12:45:49;100153.69;;;24.65;28.41
56518;BME280;42419;48.760;2.322;2023-04-21T12:48:16;100146.38;;;24.54;28.40
56518;BME280;42419;48.760;2.322;2023-04-21T12:50:42;100158.66;;;24.58;28.44
56518;BME280;42419;48.760;2.322;2023-04-21T12:53:07;100154.44;;;24.54;28.07
56518;BME280;42419;48.760;2.322;2023-04-21T12:55:34;100160.78;;;24.53;28.39
56518;BME280;42419;48.760;2.322;2023-04-21T12:58:00;100158.28;;;24.50;28.57
56518;BME280;42419;48.760;2.322;2023-04-21T13:00:25;100151.75;;;24.54;28.50